Carlock, Illinois
Current Conditions -  °F | °C
As of 9:56 PM on Friday 24 Oct 2014 (Local Time) from KBMI Reporting Station
Haze Haze  
Wind Chill: 57°   Ceiling: 3100
Heat Index: 57°   Visibility: 5mi
Dew Point: 55°   Wind: 9mph
Humidity: 93%   Direction: 200°SSW
Pressure: 30"   Gusts: NA
Location:  40.58°N, 89.13°W
Report Text: KBMI 250256Z 20008KT 5SM BR BKN031 BKN042 BKN060 14/13 A3000 RMK AO2 56001 T01380127 BKN V SCT SLP158
Loading
Personal Weather Stations






























Interactive Weather Map
Tropical Storm Tracking
New forecast layout! Learn more

10-Day Weather Forecast

Advertisements
Track Severe Weather on mobile